createdAt,value
2019-06-07T00:00:40.304Z,16.89
2019-06-07T00:01:37.850Z,16.88
2019-06-07T00:02:37.823Z,16.88
2019-06-07T00:03:37.811Z,16.89
2019-06-07T00:04:37.805Z,16.86
2019-06-07T00:05:37.789Z,16.96
2019-06-07T00:06:37.838Z,16.95
2019-06-07T00:07:37.771Z,16.83
2019-06-07T00:08:37.755Z,16.83
2019-06-07T00:09:37.746Z,16.95
2019-06-07T00:10:37.732Z,17.00
2019-06-07T00:11:37.727Z,16.96
2019-06-07T00:12:37.718Z,16.95
2019-06-07T00:13:37.697Z,16.89
2019-06-07T00:14:37.689Z,16.95
2019-06-07T00:15:37.684Z,16.95
2019-06-07T00:16:37.669Z,17.00
2019-06-07T00:17:37.670Z,17.00
2019-06-07T00:18:37.650Z,16.98
2019-06-07T00:19:37.631Z,16.96
2019-06-07T00:20:37.630Z,16.95
2019-06-07T00:22:38.624Z,16.85
2019-06-07T00:23:37.592Z,16.85
2019-06-07T00:24:37.581Z,16.86
2019-06-07T00:25:37.570Z,16.88
2019-06-07T00:26:57.252Z,16.88
2019-06-07T00:27:38.545Z,16.98
2019-06-07T00:28:37.578Z,16.89
2019-06-07T00:29:37.564Z,17.00
2019-06-07T00:30:50.794Z,17.00
2019-06-07T00:31:38.494Z,16.86
2019-06-07T00:32:37.496Z,16.92
2019-06-07T00:33:37.482Z,16.96
2019-06-07T00:34:37.464Z,16.99
2019-06-07T00:35:37.451Z,16.99
2019-06-07T00:36:37.444Z,16.98
2019-06-07T00:37:37.444Z,16.96
2019-06-07T00:38:37.481Z,16.99
2019-06-07T00:39:37.406Z,17.10
2019-06-07T00:40:37.396Z,17.06
2019-06-07T00:41:37.390Z,17.06
2019-06-07T00:42:37.373Z,17.11
2019-06-07T00:43:37.371Z,17.04
2019-06-07T00:44:37.365Z,17.10
2019-06-07T00:45:37.341Z,17.11
2019-06-07T00:46:37.328Z,17.06
2019-06-07T00:47:37.329Z,17.07
2019-06-07T00:48:37.312Z,17.14
2019-06-07T00:49:41.440Z,17.07
2019-06-07T00:50:37.300Z,16.99
2019-06-07T00:51:49.990Z,16.95
2019-06-07T00:53:38.254Z,17.03
2019-06-07T00:54:37.276Z,17.03
2019-06-07T00:55:37.225Z,16.99
2019-06-07T00:56:37.220Z,17.06
2019-06-07T00:57:37.206Z,17.07
2019-06-07T00:58:37.194Z,17.10
2019-06-07T00:59:37.186Z,17.04
2019-06-07T01:00:37.187Z,17.15
2019-06-07T01:01:37.167Z,17.15
2019-06-07T01:02:37.147Z,17.26
2019-06-07T01:03:37.135Z,17.38
2019-06-07T01:04:37.129Z,17.33
2019-06-07T01:05:37.128Z,17.41
2019-06-07T01:06:37.115Z,17.33
2019-06-07T01:07:37.098Z,17.28
2019-06-07T01:08:37.092Z,17.22
2019-06-07T01:09:37.076Z,17.28
2019-06-07T01:10:53.109Z,17.26
2019-06-07T01:11:38.051Z,17.23
2019-06-07T01:12:37.059Z,17.29
2019-06-07T01:13:37.028Z,17.25
2019-06-07T01:14:37.082Z,17.26
2019-06-07T01:15:37.007Z,17.18
2019-06-07T01:16:56.505Z,17.26
2019-06-07T01:17:50.146Z,17.25
2019-06-07T01:18:43.442Z,17.30
2019-06-07T01:19:37.961Z,17.30
2019-06-07T01:20:36.954Z,17.35
2019-06-07T01:21:37.017Z,17.36
2019-06-07T01:22:36.930Z,17.40
2019-06-07T01:24:37.906Z,17.32
2019-06-07T01:25:36.893Z,17.30
2019-06-07T01:26:36.886Z,17.32
2019-06-07T01:27:36.881Z,17.18
2019-06-07T01:28:36.868Z,17.32
2019-06-07T01:29:36.846Z,17.36
2019-06-07T01:30:36.836Z,17.26
2019-06-07T01:31:36.831Z,17.22
2019-06-07T01:32:36.860Z,17.18
2019-06-07T01:33:50.359Z,17.11
2019-06-07T01:34:37.790Z,17.10
2019-06-07T01:35:36.781Z,16.99
2019-06-07T01:36:36.775Z,17.10
2019-06-07T01:37:36.757Z,17.07
2019-06-07T01:38:36.762Z,17.06
2019-06-07T01:39:36.735Z,16.99
2019-06-07T01:40:36.727Z,16.98
2019-06-07T01:41:36.717Z,16.92
2019-06-07T01:42:36.707Z,16.95
2019-06-07T01:43:36.721Z,16.96
2019-06-07T01:44:36.742Z,16.96
2019-06-07T01:45:36.670Z,16.99
2019-06-07T01:46:36.657Z,16.98
2019-06-07T01:47:36.651Z,16.85
2019-06-07T01:48:48.950Z,16.88
2019-06-07T01:49:37.634Z,16.88
2019-06-07T01:50:36.610Z,16.77
2019-06-07T01:51:36.605Z,16.77
2019-06-07T01:52:36.595Z,16.81
2019-06-07T01:53:36.583Z,16.78
2019-06-07T01:54:57.958Z,16.75
2019-06-07T01:55:37.561Z,16.71
2019-06-07T01:56:36.552Z,16.73
2019-06-07T01:57:47.561Z,16.80
2019-06-07T01:58:37.526Z,16.78
2019-06-07T01:59:36.574Z,16.78
2019-06-07T02:00:36.519Z,16.68
2019-06-07T02:01:36.495Z,16.78
2019-06-07T02:02:36.483Z,16.78
2019-06-07T02:03:36.490Z,16.78
2019-06-07T02:04:36.456Z,16.70
2019-06-07T02:05:36.462Z,16.73
2019-06-07T02:06:36.443Z,16.78
2019-06-07T02:07:36.423Z,16.71
2019-06-07T02:08:36.417Z,16.67
2019-06-07T02:09:36.407Z,16.73
2019-06-07T02:10:36.407Z,16.74
2019-06-07T02:11:36.395Z,16.68
2019-06-07T02:12:43.261Z,16.65
2019-06-07T02:13:37.357Z,16.70
2019-06-07T02:14:36.350Z,16.68
2019-06-07T02:15:36.915Z,16.60
2019-06-07T02:16:36.389Z,16.63
2019-06-07T02:17:36.319Z,16.65
2019-06-07T02:18:36.307Z,16.65
2019-06-07T02:19:36.285Z,16.59
2019-06-07T02:20:36.276Z,16.65
2019-06-07T02:21:36.268Z,16.60
2019-06-07T02:22:36.276Z,16.58
2019-06-07T02:23:36.246Z,16.59
2019-06-07T02:24:36.743Z,16.52
2019-06-07T02:25:43.787Z,16.55
2019-06-07T02:26:37.208Z,16.53
2019-06-07T02:27:36.226Z,16.52
2019-06-07T02:28:45.009Z,16.58
2019-06-07T02:29:37.179Z,16.53
2019-06-07T02:30:46.145Z,16.45
2019-06-07T02:31:39.846Z,16.37
2019-06-07T02:32:37.057Z,16.35
2019-06-07T02:33:40.210Z,16.41
2019-06-07T02:34:39.504Z,16.35
2019-06-07T02:35:40.179Z,16.35
2019-06-07T02:36:41.294Z,16.30
2019-06-07T02:37:37.657Z,16.38
2019-06-07T02:38:37.810Z,16.42
2019-06-07T02:39:39.972Z,16.37
2019-06-07T02:40:37.523Z,16.38
2019-06-07T02:41:39.881Z,16.41
2019-06-07T02:42:42.263Z,16.44
2019-06-07T02:43:37.461Z,16.41
2019-06-07T02:44:39.599Z,16.38
2019-06-07T02:45:42.721Z,16.40
2019-06-07T02:46:46.484Z,16.38
2019-06-07T02:47:38.340Z,16.48
2019-06-07T02:48:40.094Z,16.38
2019-06-07T02:49:41.148Z,16.38
2019-06-07T02:50:38.689Z,16.40
2019-06-07T02:51:41.698Z,16.34
2019-06-07T02:52:40.721Z,16.31
2019-06-07T02:53:40.070Z,16.38
2019-06-07T02:54:39.762Z,16.27
2019-06-07T02:56:26.158Z,16.33
2019-06-07T02:56:55.621Z,16.30
2019-06-07T02:57:41.236Z,16.23
2019-06-07T02:58:41.506Z,16.27
2019-06-07T03:00:03.111Z,16.18
2019-06-07T03:01:00.543Z,16.18
2019-06-07T03:01:41.849Z,16.23
2019-06-07T03:02:41.220Z,16.20
2019-06-07T03:03:39.445Z,16.26
2019-06-07T03:04:41.563Z,16.25
2019-06-07T03:05:40.787Z,16.16
2019-06-07T03:06:39.376Z,16.15
2019-06-07T03:07:40.206Z,16.12
2019-06-07T03:08:37.129Z,16.18
2019-06-07T03:09:37.077Z,16.18
2019-06-07T03:10:37.728Z,16.20
2019-06-07T03:11:37.612Z,16.25
2019-06-07T03:12:35.726Z,16.34
2019-06-07T03:13:37.583Z,16.37
2019-06-07T03:14:35.685Z,16.33
2019-06-07T03:15:47.713Z,16.41
2019-06-07T03:16:37.306Z,16.37
2019-06-07T03:17:38.372Z,16.41
2019-06-07T03:18:36.490Z,16.35
2019-06-07T03:19:37.831Z,16.38
2019-06-07T03:20:36.789Z,16.48
2019-06-07T03:21:36.387Z,16.50
2019-06-07T03:22:39.934Z,16.50
2019-06-07T03:23:36.607Z,16.52
2019-06-07T03:24:38.370Z,16.50
2019-06-07T03:25:37.283Z,16.45
2019-06-07T03:27:23.056Z,16.41
2019-06-07T03:27:48.274Z,16.33
2019-06-07T03:28:37.949Z,16.38
2019-06-07T03:29:36.614Z,16.33
2019-06-07T03:30:47.067Z,16.31
2019-06-07T03:31:41.568Z,16.35
2019-06-07T03:32:42.936Z,16.37
2019-06-07T03:33:44.490Z,16.35
2019-06-07T03:34:41.318Z,16.48
2019-06-07T03:35:37.474Z,16.45
2019-06-07T03:36:39.998Z,16.48
2019-06-07T03:37:40.637Z,16.55
2019-06-07T03:38:37.630Z,16.50
2019-06-07T03:39:37.010Z,16.40
2019-06-07T03:40:39.626Z,16.30
2019-06-07T03:41:43.825Z,16.23
2019-06-07T03:42:39.736Z,16.20
2019-06-07T03:43:39.959Z,16.26
2019-06-07T03:44:40.628Z,16.35
2019-06-07T03:45:40.979Z,16.38
2019-06-07T03:46:38.930Z,16.38
2019-06-07T03:47:39.337Z,16.37
2019-06-07T03:48:40.651Z,16.48
2019-06-07T03:49:40.113Z,16.44
2019-06-07T03:50:39.574Z,16.49
2019-06-07T03:51:39.663Z,16.50
2019-06-07T03:52:38.559Z,16.49
2019-06-07T03:53:37.375Z,16.55
2019-06-07T03:54:38.452Z,16.56
2019-06-07T03:55:39.106Z,16.62
2019-06-07T03:56:38.651Z,16.65
2019-06-07T03:58:28.831Z,16.65
2019-06-07T03:58:47.851Z,16.60
2019-06-07T03:59:39.051Z,16.59
2019-06-07T04:00:39.053Z,16.53
2019-06-07T04:01:39.789Z,16.45
2019-06-07T04:02:40.801Z,16.48
2019-06-07T04:03:46.934Z,16.35
2019-06-07T04:04:38.465Z,16.42
2019-06-07T04:05:40.263Z,16.33
2019-06-07T04:06:38.880Z,16.26
2019-06-07T04:07:39.246Z,16.31
2019-06-07T04:08:39.690Z,16.23
2019-06-07T04:09:41.912Z,16.27
2019-06-07T04:10:53.515Z,16.31
2019-06-07T04:11:39.496Z,16.34
2019-06-07T04:12:41.345Z,16.34
2019-06-07T04:13:39.870Z,16.31
2019-06-07T04:14:38.400Z,16.34
2019-06-07T04:15:39.238Z,16.27
2019-06-07T04:16:40.426Z,16.30
2019-06-07T04:17:37.166Z,16.38
2019-06-07T04:18:36.436Z,16.33
2019-06-07T04:19:39.408Z,16.35
2019-06-07T04:20:38.106Z,16.44
2019-06-07T04:21:37.265Z,16.34
2019-06-07T04:22:39.756Z,16.35
2019-06-07T04:23:41.791Z,16.41
2019-06-07T04:24:38.865Z,16.38
2019-06-07T04:25:39.441Z,16.38
2019-06-07T04:26:37.442Z,16.62
2019-06-07T04:27:37.670Z,16.63
2019-06-07T04:29:26.034Z,16.81
2019-06-07T04:29:56.892Z,16.74
2019-06-07T04:30:38.547Z,16.83
2019-06-07T04:31:36.960Z,16.96
2019-06-07T04:32:37.152Z,16.90
2019-06-07T04:33:39.309Z,16.93
2019-06-07T04:34:38.351Z,17.08
2019-06-07T04:35:37.207Z,17.07
2019-06-07T04:36:46.018Z,17.13
2019-06-07T04:37:39.082Z,17.17
2019-06-07T04:38:39.261Z,17.32
2019-06-07T04:39:38.146Z,17.36
2019-06-07T04:40:36.848Z,17.40
2019-06-07T04:41:37.229Z,17.48
2019-06-07T04:42:38.458Z,17.54
2019-06-07T04:43:38.027Z,17.55
2019-06-07T04:44:37.082Z,17.74
2019-06-07T04:45:41.952Z,17.74
2019-06-07T04:46:39.863Z,17.67
2019-06-07T04:47:37.242Z,17.76
2019-06-07T04:48:36.026Z,17.69
2019-06-07T04:49:38.202Z,17.73
2019-06-07T04:50:38.308Z,17.79
2019-06-07T04:51:37.251Z,17.74
2019-06-07T04:52:39.889Z,17.71
2019-06-07T04:53:38.629Z,17.71
2019-06-07T04:54:37.854Z,17.85
2019-06-07T04:55:38.646Z,17.97
2019-06-07T04:56:40.893Z,18.03
2019-06-07T04:57:37.611Z,18.09
2019-06-07T04:58:35.780Z,18.29
2019-06-07T05:00:11.130Z,18.39
2019-06-07T05:00:56.494Z,18.49
2019-06-07T05:01:37.456Z,18.39
2019-06-07T05:02:39.843Z,18.40
2019-06-07T05:03:38.953Z,18.50
2019-06-07T05:04:37.121Z,18.58
2019-06-07T05:05:37.494Z,18.64
2019-06-07T05:06:37.665Z,18.64
2019-06-07T05:07:35.205Z,18.87
2019-06-07T05:08:36.153Z,18.79
2019-06-07T05:09:37.573Z,18.92
2019-06-07T05:10:36.149Z,18.91
2019-06-07T05:11:36.435Z,18.99
2019-06-07T05:12:36.152Z,19.10
2019-06-07T05:13:38.491Z,19.21
2019-06-07T05:14:36.739Z,19.33
2019-06-07T05:15:35.237Z,19.48
2019-06-07T05:16:36.837Z,19.60
2019-06-07T05:17:34.706Z,19.70
2019-06-07T05:18:36.311Z,19.83
2019-06-07T05:19:38.526Z,19.78
2019-06-07T05:20:36.087Z,19.80
2019-06-07T05:21:54.209Z,19.87
2019-06-07T05:22:41.978Z,20.02
2019-06-07T05:24:05.639Z,20.12
2019-06-07T05:24:38.475Z,20.18
2019-06-07T05:25:36.471Z,20.28
2019-06-07T05:26:37.698Z,20.39
2019-06-07T05:27:36.476Z,20.50
2019-06-07T05:28:35.131Z,20.59
2019-06-07T05:29:36.790Z,20.72
2019-06-07T05:31:37.475Z,20.68
2019-06-07T05:32:34.996Z,20.71
2019-06-07T05:33:36.601Z,20.65
2019-06-07T05:34:36.273Z,20.72
2019-06-07T05:35:35.575Z,20.66
2019-06-07T05:36:36.698Z,20.68
2019-06-07T05:37:35.824Z,20.66
2019-06-07T05:38:35.942Z,20.61
2019-06-07T05:39:36.842Z,20.62
2019-06-07T05:40:34.905Z,20.77
2019-06-07T05:41:34.247Z,20.89
2019-06-07T05:42:36.910Z,20.95
2019-06-07T05:43:39.311Z,21.08
2019-06-07T05:44:36.525Z,21.04
2019-06-07T05:45:37.631Z,21.16
2019-06-07T05:46:38.628Z,21.29
2019-06-07T05:47:38.461Z,21.39
2019-06-07T05:48:36.615Z,21.60
2019-06-07T05:49:37.904Z,21.63
2019-06-07T05:50:44.827Z,21.79
2019-06-07T05:51:37.258Z,21.78
2019-06-07T05:52:38.482Z,21.81
2019-06-07T05:53:34.928Z,21.92
2019-06-07T05:54:35.105Z,21.91
2019-06-07T05:55:35.306Z,21.94
2019-06-07T05:56:35.730Z,22.09
2019-06-07T05:57:36.333Z,22.17
2019-06-07T05:58:35.177Z,22.22
2019-06-07T05:59:37.931Z,22.34
2019-06-07T06:00:36.404Z,22.37
2019-06-07T06:02:01.961Z,22.44
2019-06-07T06:02:57.640Z,22.37
2019-06-07T06:03:36.167Z,22.22
2019-06-07T06:04:33.905Z,22.35
2019-06-07T06:05:39.307Z,22.49
2019-06-07T06:06:36.337Z,22.59
2019-06-07T06:07:35.781Z,22.71
2019-06-07T06:08:36.580Z,22.68
2019-06-07T06:09:35.338Z,22.64
2019-06-07T06:10:34.059Z,22.72
2019-06-07T06:11:47.032Z,22.74
2019-06-07T06:12:39.107Z,22.83
2019-06-07T06:13:34.715Z,22.96
2019-06-07T06:14:35.376Z,22.92
2019-06-07T06:15:46.364Z,23.11
2019-06-07T06:16:34.724Z,23.15
2019-06-07T06:17:33.697Z,23.29
2019-06-07T06:18:33.660Z,23.24
2019-06-07T06:19:33.651Z,23.29
2019-06-07T06:20:59.992Z,23.23
2019-06-07T06:21:34.632Z,23.34
2019-06-07T06:22:33.629Z,23.42
2019-06-07T06:23:33.602Z,23.50
2019-06-07T06:24:33.598Z,23.50
2019-06-07T06:25:34.436Z,23.40
2019-06-07T06:26:33.611Z,23.49
2019-06-07T06:28:36.915Z,23.50
2019-06-07T06:29:33.538Z,23.58
2019-06-07T06:30:33.553Z,23.70
2019-06-07T06:31:33.535Z,23.70
2019-06-07T06:32:47.184Z,23.38
2019-06-07T06:33:35.099Z,23.40
2019-06-07T06:34:33.490Z,23.38
2019-06-07T06:35:33.471Z,23.40
2019-06-07T06:36:33.461Z,23.46
2019-06-07T06:37:33.487Z,23.17
2019-06-07T06:38:33.442Z,22.82
2019-06-07T06:39:33.430Z,22.60
2019-06-07T06:40:33.450Z,22.77
2019-06-07T06:41:46.091Z,22.56
2019-06-07T06:42:34.437Z,22.67
2019-06-07T06:43:33.388Z,22.94
2019-06-07T06:44:33.382Z,23.15
2019-06-07T06:45:33.386Z,23.32
2019-06-07T06:46:38.825Z,23.61
2019-06-07T06:47:34.353Z,23.76
2019-06-07T06:48:33.344Z,24.02
2019-06-07T06:49:33.321Z,24.29
2019-06-07T06:50:33.311Z,24.49
2019-06-07T06:51:33.303Z,24.54
2019-06-07T06:52:33.324Z,24.63
2019-06-07T06:53:33.284Z,24.60
2019-06-07T06:54:40.564Z,24.90
2019-06-07T06:55:34.259Z,24.95
2019-06-07T06:56:33.247Z,24.94
2019-06-07T06:57:33.240Z,25.13
2019-06-07T06:59:18.627Z,25.22
2019-06-07T06:59:39.359Z,25.30
2019-06-07T07:00:49.006Z,25.17
2019-06-07T07:01:34.195Z,25.12
2019-06-07T07:02:33.178Z,25.19
2019-06-07T07:03:57.557Z,25.28
2019-06-07T07:04:34.207Z,25.22
2019-06-07T07:05:33.150Z,25.43
2019-06-07T07:06:33.135Z,25.62
2019-06-07T07:07:33.128Z,25.71
2019-06-07T07:08:33.119Z,25.27
2019-06-07T07:09:33.104Z,25.13
2019-06-07T07:10:33.113Z,25.19
2019-06-07T07:11:33.094Z,25.28
2019-06-07T07:12:33.077Z,25.39
2019-06-07T07:13:33.102Z,25.49
2019-06-07T07:14:33.140Z,25.16
2019-06-07T07:15:33.047Z,25.20
2019-06-07T07:16:33.034Z,24.42
2019-06-07T07:17:50.665Z,23.67
2019-06-07T07:18:34.019Z,23.15
2019-06-07T07:19:32.999Z,23.02
2019-06-07T07:20:32.992Z,23.11
2019-06-07T07:21:32.999Z,23.38
2019-06-07T07:22:32.972Z,23.82
2019-06-07T07:23:32.966Z,24.19
2019-06-07T07:24:32.955Z,24.50
2019-06-07T07:25:32.953Z,24.85
2019-06-07T07:26:32.927Z,25.09
2019-06-07T07:27:32.933Z,25.31
2019-06-07T07:28:32.931Z,25.69
2019-06-07T07:29:32.895Z,25.86
2019-06-07T07:30:36.707Z,26.09
2019-06-07T07:31:32.868Z,25.52
2019-06-07T07:32:32.908Z,24.82
2019-06-07T07:34:20.584Z,24.49
2019-06-07T07:34:37.064Z,24.37
2019-06-07T07:35:32.826Z,24.34
2019-06-07T07:36:39.241Z,24.64
2019-06-07T07:37:33.809Z,24.88
2019-06-07T07:38:32.800Z,25.30
2019-06-07T07:39:32.816Z,25.68
2019-06-07T07:40:57.331Z,25.89
2019-06-07T07:41:33.764Z,26.36
2019-06-07T07:42:32.752Z,26.37
2019-06-07T07:43:32.745Z,26.49
2019-06-07T07:44:32.731Z,25.84
2019-06-07T07:45:32.737Z,25.38
2019-06-07T07:46:32.718Z,25.16
2019-06-07T07:47:32.699Z,25.28
2019-06-07T07:48:32.858Z,25.57
2019-06-07T07:49:32.695Z,25.67
2019-06-07T07:50:32.721Z,25.97
2019-06-07T07:51:32.673Z,26.08
2019-06-07T07:52:32.649Z,26.06
2019-06-07T07:53:48.262Z,26.01
2019-06-07T07:54:33.626Z,26.04
2019-06-07T07:55:32.707Z,26.42
2019-06-07T07:56:32.600Z,26.11
2019-06-07T07:57:32.598Z,26.64
2019-06-07T07:58:32.581Z,26.72
2019-06-07T07:59:41.746Z,26.64
2019-06-07T08:00:52.795Z,25.72
2019-06-07T08:01:33.549Z,25.24
2019-06-07T08:02:32.547Z,24.91
2019-06-07T08:03:32.530Z,24.97
2019-06-07T08:05:13.068Z,25.27
2019-06-07T08:05:42.384Z,25.90
2019-06-07T08:06:33.491Z,26.25
2019-06-07T08:07:32.486Z,26.20
2019-06-07T08:08:32.471Z,26.47
2019-06-07T08:09:32.466Z,26.89
2019-06-07T08:10:32.451Z,26.96
2019-06-07T08:11:32.509Z,26.62
2019-06-07T08:12:55.896Z,26.09
2019-06-07T08:13:33.547Z,26.05
2019-06-07T08:14:32.412Z,26.49
2019-06-07T08:15:32.398Z,26.47
2019-06-07T08:16:32.412Z,26.20
2019-06-07T08:17:32.417Z,25.67
2019-06-07T08:18:32.375Z,25.25
2019-06-07T08:19:32.357Z,25.15
2019-06-07T08:20:32.345Z,25.12
2019-06-07T08:21:32.336Z,25.47
2019-06-07T08:22:32.358Z,25.91
2019-06-07T08:23:32.316Z,26.04
2019-06-07T08:24:32.318Z,26.09
2019-06-07T08:25:32.331Z,26.29
2019-06-07T08:26:32.280Z,26.28
2019-06-07T08:27:32.276Z,25.65
2019-06-07T08:28:32.291Z,25.52
2019-06-07T08:29:44.410Z,25.84
2019-06-07T08:30:56.196Z,26.06
2019-06-07T08:31:33.231Z,25.84
2019-06-07T08:32:32.221Z,25.84
2019-06-07T08:33:32.218Z,25.99
2019-06-07T08:34:32.242Z,26.15
2019-06-07T08:36:03.653Z,26.06
2019-06-07T08:36:41.852Z,25.80
2019-06-07T08:38:14.218Z,25.64
2019-06-07T08:38:46.840Z,25.50
2019-06-07T08:39:33.173Z,25.50
2019-06-07T08:40:32.162Z,25.43
2019-06-07T08:41:32.128Z,25.49
2019-06-07T08:42:37.549Z,25.65
2019-06-07T08:43:33.113Z,25.97
2019-06-07T08:44:32.106Z,25.91
2019-06-07T08:45:32.084Z,25.99
2019-06-07T08:46:32.077Z,26.17
2019-06-07T08:47:32.070Z,26.50
2019-06-07T08:48:32.052Z,26.65
2019-06-07T08:49:32.064Z,26.58
2019-06-07T08:50:32.039Z,26.15
2019-06-07T08:51:32.026Z,25.67
2019-06-07T08:52:32.013Z,25.25
2019-06-07T08:53:32.008Z,25.16
2019-06-07T08:54:32.006Z,25.38
2019-06-07T08:55:31.986Z,25.82
2019-06-07T08:56:31.968Z,26.24
2019-06-07T08:57:31.968Z,26.61
2019-06-07T08:58:31.949Z,27.05
2019-06-07T08:59:31.951Z,27.21
2019-06-07T09:00:48.026Z,27.23
2019-06-07T09:01:32.918Z,26.80
2019-06-07T09:02:31.905Z,26.20
2019-06-07T09:03:31.898Z,25.79
2019-06-07T09:04:31.899Z,25.42
2019-06-07T09:05:31.880Z,25.15
2019-06-07T09:07:06.727Z,25.10
2019-06-07T09:07:32.856Z,25.22
2019-06-07T09:08:31.849Z,25.24
2019-06-07T09:09:31.836Z,25.98
2019-06-07T09:10:32.689Z,26.58
2019-06-07T09:11:31.957Z,27.31
2019-06-07T09:12:31.804Z,27.74
2019-06-07T09:13:31.793Z,27.96
2019-06-07T09:14:31.785Z,27.82
2019-06-07T09:15:31.767Z,27.41
2019-06-07T09:16:31.758Z,26.87
2019-06-07T09:17:31.761Z,26.46
2019-06-07T09:18:41.988Z,26.36
2019-06-07T09:19:32.729Z,26.09
2019-06-07T09:20:36.820Z,25.91
2019-06-07T09:21:32.724Z,26.12
2019-06-07T09:22:31.709Z,26.99
2019-06-07T09:23:31.691Z,27.64
2019-06-07T09:24:31.680Z,27.96
2019-06-07T09:25:31.669Z,28.62
2019-06-07T09:26:31.656Z,29.01
2019-06-07T09:27:31.667Z,28.93
2019-06-07T09:28:31.648Z,28.88
2019-06-07T09:29:31.670Z,28.60
2019-06-07T09:30:31.617Z,28.95
2019-06-07T09:31:51.065Z,29.18
2019-06-07T09:32:32.598Z,28.48
2019-06-07T09:33:31.586Z,28.43
2019-06-07T09:34:31.575Z,28.04
2019-06-07T09:35:31.567Z,27.88
2019-06-07T09:36:31.546Z,28.16
2019-06-07T09:38:04.588Z,28.53
2019-06-07T09:38:32.523Z,29.10
2019-06-07T09:39:31.515Z,29.92
2019-06-07T09:40:31.513Z,30.54
2019-06-07T09:41:46.975Z,30.78
2019-06-07T09:42:32.503Z,31.02
2019-06-07T09:44:00.564Z,30.91
2019-06-07T09:44:32.479Z,30.16
2019-06-07T09:45:31.453Z,30.57
2019-06-07T09:46:31.447Z,31.13
2019-06-07T09:47:32.938Z,31.45
2019-06-07T09:49:09.742Z,30.00
2019-06-07T09:49:33.459Z,28.88
2019-06-07T09:50:31.397Z,28.47
2019-06-07T09:51:31.405Z,28.11
2019-06-07T09:52:31.384Z,27.74
2019-06-07T09:53:31.383Z,27.36
2019-06-07T09:55:03.939Z,27.14
2019-06-07T09:55:32.381Z,27.04
2019-06-07T09:56:31.351Z,27.09
2019-06-07T09:57:31.329Z,26.86
2019-06-07T09:58:50.939Z,26.61
2019-06-07T09:59:32.303Z,26.31
2019-06-07T10:00:40.661Z,26.24
2019-06-07T10:01:32.304Z,26.20
2019-06-07T10:02:31.277Z,26.67
2019-06-07T10:03:31.260Z,26.57
2019-06-07T10:04:31.747Z,26.15
2019-06-07T10:05:31.245Z,25.98
2019-06-07T10:06:31.233Z,25.77
2019-06-07T10:07:32.116Z,25.75
2019-06-07T10:11:31.186Z,28.40
2019-06-07T10:12:31.207Z,29.10
2019-06-07T10:13:31.161Z,29.94
2019-06-07T10:14:31.152Z,30.72
2019-06-07T10:15:31.140Z,31.08
2019-06-07T10:16:45.797Z,31.06
2019-06-07T10:17:32.130Z,31.38
2019-06-07T10:18:31.120Z,31.95
2019-06-07T10:19:31.099Z,32.29
2019-06-07T10:20:31.087Z,32.20
2019-06-07T10:21:31.076Z,31.43
2019-06-07T10:22:31.081Z,30.30
2019-06-07T10:23:31.093Z,29.35
2019-06-07T10:24:31.048Z,28.56
2019-06-07T10:25:31.038Z,28.35
2019-06-07T10:26:31.031Z,27.86
2019-06-07T10:27:31.027Z,27.26
2019-06-07T10:28:31.020Z,26.62
2019-06-07T10:29:31.004Z,26.11
2019-06-07T10:30:31.004Z,25.84
2019-06-07T10:31:30.984Z,25.68
2019-06-07T10:32:30.975Z,25.56
2019-06-07T10:33:30.959Z,25.39
2019-06-07T10:34:30.949Z,25.47
2019-06-07T10:35:31.079Z,25.83
2019-06-07T10:36:30.935Z,26.37
2019-06-07T10:37:30.922Z,26.18
2019-06-07T10:38:30.912Z,25.91
2019-06-07T10:39:47.372Z,25.62
2019-06-07T10:40:31.900Z,25.37
2019-06-07T10:41:30.879Z,25.32
2019-06-07T10:42:30.868Z,25.30
2019-06-07T10:43:30.860Z,25.57
2019-06-07T10:44:30.876Z,26.57
2019-06-07T10:45:30.837Z,27.80
2019-06-07T10:46:30.826Z,28.73
2019-06-07T10:47:30.811Z,29.47
2019-06-07T10:48:30.811Z,29.97
2019-06-07T10:49:30.797Z,29.94
2019-06-07T10:50:30.798Z,29.89
2019-06-07T10:51:30.811Z,28.97
2019-06-07T10:52:30.763Z,29.41
2019-06-07T10:53:30.756Z,29.26
2019-06-07T10:54:30.993Z,29.47
2019-06-07T10:55:30.743Z,30.05
2019-06-07T10:56:30.744Z,30.07
2019-06-07T10:57:30.728Z,29.38
2019-06-07T10:58:30.707Z,29.06
2019-06-07T10:59:30.702Z,28.59
2019-06-07T11:00:30.717Z,29.03
2019-06-07T11:01:30.674Z,29.00
2019-06-07T11:02:30.684Z,28.80
2019-06-07T11:03:30.657Z,28.56
2019-06-07T11:04:30.647Z,28.91
2019-06-07T11:05:30.647Z,28.85
2019-06-07T11:06:30.630Z,28.73
2019-06-07T11:07:30.649Z,28.95
2019-06-07T11:08:30.623Z,29.37
2019-06-07T11:09:30.600Z,29.57
2019-06-07T11:10:30.584Z,29.52
2019-06-07T11:11:30.587Z,29.10
2019-06-07T11:12:30.571Z,28.53
2019-06-07T11:13:30.578Z,28.47
2019-06-07T11:14:30.551Z,28.69
2019-06-07T11:15:30.538Z,28.43
2019-06-07T11:16:30.530Z,28.51
2019-06-07T11:17:30.522Z,28.58
2019-06-07T11:18:30.535Z,28.59
2019-06-07T11:19:30.498Z,28.72
2019-06-07T11:20:30.496Z,28.77
2019-06-07T11:21:30.489Z,28.77
2019-06-07T11:22:30.473Z,29.15
2019-06-07T11:23:30.478Z,29.37
2019-06-07T11:24:30.457Z,29.72
2019-06-07T11:25:30.444Z,29.59
2019-06-07T11:26:30.443Z,29.20
2019-06-07T11:27:30.426Z,28.93
2019-06-07T11:28:30.426Z,29.26
2019-06-07T11:29:30.428Z,29.25
2019-06-07T11:30:30.392Z,29.18
2019-06-07T11:31:30.387Z,28.81
2019-06-07T11:32:30.373Z,28.69
2019-06-07T11:33:30.364Z,28.28
2019-06-07T11:34:30.374Z,28.33
2019-06-07T11:35:30.344Z,28.35
2019-06-07T11:36:30.409Z,28.28
2019-06-07T11:37:30.328Z,28.09
2019-06-07T11:38:30.317Z,28.23
2019-06-07T11:39:30.307Z,28.43
2019-06-07T11:40:35.658Z,28.28
2019-06-07T11:41:31.298Z,28.17
2019-06-07T11:42:30.283Z,28.35
2019-06-07T11:43:30.267Z,28.29
2019-06-07T11:44:30.256Z,28.33
2019-06-07T11:45:30.265Z,28.38
2019-06-07T11:46:30.254Z,28.59
2019-06-07T11:47:30.249Z,28.58
2019-06-07T11:48:30.219Z,28.56
2019-06-07T11:49:30.208Z,28.62
2019-06-07T11:50:30.233Z,28.48
2019-06-07T11:51:30.199Z,28.16
2019-06-07T11:52:30.191Z,27.88
2019-06-07T11:53:30.176Z,27.79
2019-06-07T11:54:30.162Z,28.04
2019-06-07T11:55:30.163Z,28.43
2019-06-07T11:56:30.157Z,28.56
2019-06-07T11:57:30.147Z,28.70
2019-06-07T11:58:30.128Z,28.65
2019-06-07T11:59:30.120Z,28.59
2019-06-07T12:00:33.892Z,28.69
2019-06-07T12:01:30.107Z,28.72
2019-06-07T12:02:30.086Z,29.13
2019-06-07T12:03:30.070Z,29.28
2019-06-07T12:04:34.701Z,29.47
2019-06-07T12:05:30.053Z,29.71
2019-06-07T12:06:30.039Z,29.92
2019-06-07T12:07:30.040Z,29.90
2019-06-07T12:08:30.025Z,29.37
2019-06-07T12:09:30.012Z,29.00
2019-06-07T12:10:41.790Z,28.85
2019-06-07T12:11:30.989Z,28.50
2019-06-07T12:12:29.977Z,28.35
2019-06-07T12:13:29.994Z,28.35
2019-06-07T12:14:29.960Z,28.56
2019-06-07T12:15:29.950Z,28.80
2019-06-07T12:16:29.941Z,29.26
2019-06-07T12:17:29.931Z,29.38
2019-06-07T12:18:29.916Z,29.10
2019-06-07T12:19:29.921Z,29.10
2019-06-07T12:20:29.899Z,29.19
2019-06-07T12:21:29.882Z,29.31
2019-06-07T12:22:29.875Z,29.18
2019-06-07T12:23:29.886Z,29.20
2019-06-07T12:24:29.863Z,29.35
2019-06-07T12:25:29.845Z,29.13
2019-06-07T12:26:29.832Z,28.65
2019-06-07T12:27:29.837Z,28.38
2019-06-07T12:28:29.827Z,27.82
2019-06-07T12:29:29.803Z,27.29
2019-06-07T12:30:29.797Z,27.39
2019-06-07T12:31:29.783Z,26.95
2019-06-07T12:32:29.785Z,27.11
2019-06-07T12:33:29.776Z,27.13
2019-06-07T12:34:29.790Z,27.04
2019-06-07T12:35:29.741Z,26.65
2019-06-07T12:36:29.755Z,26.69
2019-06-07T12:37:43.178Z,27.05
2019-06-07T12:38:30.708Z,27.46
2019-06-07T12:39:29.696Z,27.71
2019-06-07T12:40:32.272Z,27.76
2019-06-07T12:41:29.682Z,27.67
2019-06-07T12:42:29.670Z,27.66
2019-06-07T12:43:29.689Z,27.77
2019-06-07T12:44:29.667Z,27.92
2019-06-07T12:45:44.285Z,28.22
2019-06-07T12:46:30.625Z,28.46
2019-06-07T12:47:29.612Z,28.50
2019-06-07T12:48:29.602Z,28.54
2019-06-07T12:49:29.617Z,28.43
2019-06-07T12:50:42.657Z,28.59
2019-06-07T12:51:30.570Z,28.80
2019-06-07T12:52:29.568Z,28.77
2019-06-07T12:53:29.547Z,28.48
2019-06-07T12:54:29.553Z,28.62
2019-06-07T12:55:29.532Z,28.73
2019-06-07T12:56:29.517Z,28.72
2019-06-07T12:57:29.517Z,28.56
2019-06-07T12:58:35.068Z,28.54
2019-06-07T12:59:30.500Z,28.07
2019-06-07T13:00:29.484Z,28.09